Time;durP1;ratioP1;P1;durP2;ratioP2;P2;SDS_P1;SDS_P2;PMS_P1;PMS_P2;Temp;Humidity;BMP_temperature;BMP_pressure;BME280_temperature;BME280_humidity;BME280_pressure;Samples;Min_cycle;Max_cycle;Signal;HPM_P1;HPM_P2
2023/04/24 00:02:18;;;;;;;2.20;1.20;;;12.70;1.00;;;;;;5091571;22;20538;-76
2023/04/24 00:33:13;;;;;;;3.60;1.63;;;12.60;1.00;;;;;;5222458;22;20561;-75
2023/04/24 00:35:38;;;;;;;1.60;1.20;;;12.70;1.00;;;;;;5003118;28;20464;-77
2023/04/24 00:38:04;;;;;;;1.37;1.20;;;12.70;1.00;;;;;;5006649;28;20236;-78
2023/04/24 00:40:30;;;;;;;4.53;1.43;;;12.60;1.00;;;;;;5003394;28;20197;-74
2023/04/24 01:06:15;;;;;;;3.43;1.10;;;12.50;1.00;;;;;;5831322;22;20455;-77
2023/04/24 01:16:27;;;;;;;2.80;1.40;;;12.60;1.00;;;;;;6075485;22;21229;-76
2023/04/24 01:29:20;;;;;;;3.17;1.50;;;12.50;1.00;;;;;;5801843;22;20469;-77
2023/04/24 01:31:45;;;;;;;1.43;1.17;;;12.40;1.00;;;;;;5027591;28;20825;-77
2023/04/24 01:34:11;;;;;;;2.53;1.33;;;12.40;1.00;;;;;;5020763;28;20715;-76
2023/04/24 01:36:37;;;;;;;4.67;1.70;;;12.40;1.00;;;;;;5007284;28;20214;-77
2023/04/24 02:30:50;;;;;;;2.90;1.43;;;12.10;1.00;;;;;;5517645;22;20495;-75
2023/04/24 02:33:16;;;;;;;3.70;1.50;;;12.10;1.00;;;;;;5027789;28;20470;-77
2023/04/24 02:38:17;;;;;;;2.33;1.50;;;12.10;1.00;;;;;;5342620;22;20237;-75
2023/04/24 02:56:15;;;;;;;2.67;1.50;;;12.30;1.00;;;;;;5619556;23;20488;-75
2023/04/24 02:58:42;;;;;;;3.93;1.50;;;12.30;1.00;;;;;;5008828;28;20491;-74
2023/04/24 03:06:18;;;;;;;6.93;1.57;;;12.40;1.00;;;;;;5783600;22;20528;-78
2023/04/24 03:11:19;;;;;;;4.13;1.77;;;12.50;1.00;;;;;;6094178;22;1037117;-79
2023/04/24 03:13:45;;;;;;;1.77;1.20;;;12.50;1.00;;;;;;4988521;28;20442;-75
2023/04/24 03:16:10;;;;;;;2.63;1.67;;;12.50;1.00;;;;;;4997655;28;20189;-76
2023/04/24 03:18:36;;;;;;;3.17;2.03;;;12.30;1.00;;;;;;4986480;28;20176;-75
2023/04/24 03:28:47;;;;;;;2.63;2.40;;;11.70;1.00;;;;;;6103256;23;21216;-76
2023/04/24 03:38:55;;;;;;;4.70;2.00;;;11.30;1.00;;;;;;6145179;22;21356;-75
2023/04/24 03:41:22;;;;;;;4.63;2.00;;;11.30;1.00;;;;;;5027650;28;20785;-75
2023/04/24 03:43:48;;;;;;;2.60;1.97;;;11.40;1.00;;;;;;5027000;28;20257;-76
2023/04/24 03:46:13;;;;;;;3.60;2.20;;;11.40;1.00;;;;;;5009578;28;20516;-75
2023/04/24 03:48:39;;;;;;;2.50;2.10;;;11.40;1.00;;;;;;4993349;28;20183;-79
2023/04/24 03:56:15;;;;;;;2.57;2.03;;;11.40;1.00;;;;;;5799931;22;20590;-78
2023/04/24 04:29:45;;;;;;;2.90;2.63;;;10.90;1.00;;;;;;5915098;22;20507;-78
2023/04/24 04:42:34;;;;;;;4.37;2.30;;;10.60;1.00;;;;;;5493846;22;20504;-77
2023/04/24 05:00:35;;;;;;;3.67;2.43;;;10.40;1.00;;;;;;6118166;23;21450;-76
2023/04/24 05:03:01;;;;;;;3.50;2.60;;;10.30;1.00;;;;;;5002727;28;20630;-77
2023/04/24 05:05:27;;;;;;;3.50;2.40;;;10.30;1.00;;;;;;5006618;28;20748;-77
2023/04/24 05:07:52;;;;;;;3.33;3.03;;;10.40;1.00;;;;;;4993609;28;20982;-75
2023/04/24 05:10:18;;;;;;;4.57;2.80;;;10.40;1.00;;;;;;5012813;28;20466;-82
2023/04/24 05:12:43;;;;;;;4.00;3.23;;;10.40;1.00;;;;;;5007355;28;20684;-76
2023/04/24 05:15:09;;;;;;;4.77;3.07;;;10.30;1.00;;;;;;5064087;22;20233;-75
2023/04/24 05:17:35;;;;;;;3.13;2.80;;;10.30;1.00;;;;;;4994676;28;20189;-76
2023/04/24 05:20:01;;;;;;;4.97;3.23;;;10.40;1.00;;;;;;4995849;28;20511;-73
2023/04/24 05:22:26;;;;;;;4.93;3.00;;;10.30;1.00;;;;;;5006466;28;20270;-74
2023/04/24 05:24:53;;;;;;;3.27;2.80;;;10.50;1.00;;;;;;5006965;28;20264;-74
2023/04/24 05:27:18;;;;;;;3.57;3.27;;;10.60;1.00;;;;;;4992129;28;20214;-73
2023/04/24 05:29:44;;;;;;;4.73;3.27;;;10.80;1.00;;;;;;4991011;28;20491;-74
2023/04/24 05:32:10;;;;;;;5.40;3.20;;;10.90;1.00;;;;;;5007004;28;20214;-74
2023/04/24 05:34:36;;;;;;;4.87;3.10;;;11.00;1.00;;;;;;4989339;28;20485;-74
2023/04/24 05:37:01;;;;;;;3.80;3.50;;;11.00;1.00;;;;;;5009368;28;20717;-73
2023/04/24 05:39:27;;;;;;;3.80;3.40;;;11.00;1.00;;;;;;4997196;28;20186;-74
2023/04/24 05:41:52;;;;;;;4.23;3.13;;;11.20;1.00;;;;;;4987076;28;20175;-73
2023/04/24 05:44:18;;;;;;;4.13;3.20;;;11.30;1.00;;;;;;5007857;28;20210;-74
2023/04/24 05:46:43;;;;;;;5.80;3.60;;;11.30;1.00;;;;;;4993950;28;20203;-74
2023/04/24 05:49:09;;;;;;;5.73;3.57;;;11.30;1.00;;;;;;5005910;28;20660;-73
2023/04/24 05:51:35;;;;;;;3.90;3.40;;;11.40;1.00;;;;;;4993172;28;20185;-74
2023/04/24 05:54:01;;;;;;;6.33;3.50;;;11.50;1.00;;;;;;4993432;28;20393;-75
2023/04/24 05:56:27;;;;;;;5.47;3.53;;;11.70;1.00;;;;;;4997403;28;20213;-73
2023/04/24 05:58:52;;;;;;;3.57;3.27;;;11.80;1.00;;;;;;5007029;28;20840;-76
2023/04/24 06:01:18;;;;;;;4.90;3.77;;;11.90;1.00;;;;;;4990637;28;20560;-73
2023/04/24 06:03:43;;;;;;;5.23;3.80;;;11.90;1.00;;;;;;4994233;28;20771;-74
2023/04/24 06:06:09;;;;;;;3.87;3.27;;;12.10;1.00;;;;;;5004274;28;20194;-75
2023/04/24 06:08:35;;;;;;;4.60;3.50;;;12.30;1.00;;;;;;5003117;28;20210;-74
2023/04/24 06:11:01;;;;;;;3.80;3.20;;;11.90;1.00;;;;;;5005504;28;20181;-74
2023/04/24 06:13:26;;;;;;;5.80;3.40;;;12.10;1.00;;;;;;5005761;28;20819;-73
2023/04/24 06:15:52;;;;;;;4.23;3.67;;;12.00;1.00;;;;;;5007165;28;20182;-73
2023/04/24 06:18:18;;;;;;;4.37;3.27;;;12.00;1.00;;;;;;4989506;28;20301;-74
2023/04/24 06:20:43;;;;;;;8.30;3.60;;;12.10;1.00;;;;;;5005479;28;21015;-74
2023/04/24 06:23:09;;;;;;;4.23;3.73;;;12.10;1.00;;;;;;4996123;28;20189;-72
2023/04/24 06:25:34;;;;;;;4.07;3.20;;;13.30;1.00;;;;;;5005142;28;20296;-74
2023/04/24 06:28:01;;;;;;;4.43;3.67;;;12.10;1.00;;;;;;4991411;28;20198;-74
2023/04/24 06:30:28;;;;;;;4.00;3.60;;;12.20;1.00;;;;;;5005759;28;20644;-74
2023/04/24 06:32:53;;;;;;;4.00;3.27;;;12.50;1.00;;;;;;5005448;28;20873;-74
2023/04/24 06:35:19;;;;;;;3.90;3.10;;;12.50;1.00;;;;;;5000821;28;20512;-74
2023/04/24 06:37:45;;;;;;;3.57;3.27;;;12.40;1.00;;;;;;5005131;28;20728;-75
2023/04/24 06:40:11;;;;;;;4.40;3.40;;;12.40;1.00;;;;;;5003682;28;20291;-74
2023/04/24 06:42:36;;;;;;;3.60;2.70;;;12.30;1.00;;;;;;5001072;28;20182;-73
2023/04/24 06:45:03;;;;;;;5.33;3.40;;;12.30;1.00;;;;;;5003113;28;20732;-74
2023/04/24 06:47:28;;;;;;;3.17;2.87;;;12.40;1.00;;;;;;4989722;28;20198;-74
2023/04/24 06:49:54;;;;;;;4.27;2.90;;;12.40;1.00;;;;;;4992219;28;20445;-73
2023/04/24 06:52:20;;;;;;;3.60;2.73;;;12.50;1.00;;;;;;4997450;28;20179;-73
2023/04/24 06:54:46;;;;;;;4.20;2.70;;;12.60;1.00;;;;;;5004820;28;20457;-74
2023/04/24 06:57:11;;;;;;;2.23;2.03;;;12.70;1.00;;;;;;4986328;28;20186;-76
2023/04/24 06:59:37;;;;;;;3.50;2.67;;;12.40;1.00;;;;;;4992043;28;20648;-76
2023/04/24 07:02:03;;;;;;;7.93;2.67;;;12.40;1.00;;;;;;5002968;28;20190;-77
2023/04/24 07:04:29;;;;;;;5.73;2.37;;;12.60;1.00;;;;;;5005404;28;20539;-75
2023/04/24 07:06:55;;;;;;;4.83;3.10;;;12.80;1.00;;;;;;4992965;28;20575;-74
2023/04/24 07:09:23;;;;;;;2.87;2.60;;;12.90;1.00;;;;;;5007536;28;20433;-75
2023/04/24 07:11:49;;;;;;;2.40;2.20;;;13.00;1.00;;;;;;5004077;28;20783;-75
2023/04/24 07:14:15;;;;;;;6.23;2.60;;;13.10;1.00;;;;;;5004400;28;20465;-76
2023/04/24 07:16:41;;;;;;;3.80;2.20;;;13.30;1.00;;;;;;5008498;28;20448;-77
2023/04/24 07:19:07;;;;;;;6.63;2.47;;;13.40;1.00;;;;;;5007780;28;20182;-76
2023/04/24 07:21:32;;;;;;;3.03;2.67;;;13.20;1.00;;;;;;5007956;28;20507;-75
2023/04/24 07:23:58;;;;;;;3.30;2.93;;;12.80;1.00;;;;;;5008610;28;20198;-76
2023/04/24 07:26:24;;;;;;;2.70;2.50;;;12.10;1.00;;;;;;5009676;28;20252;-76
2023/04/24 07:28:50;;;;;;;2.90;2.57;;;11.60;1.00;;;;;;5008974;28;20641;-77
2023/04/24 07:31:15;;;;;;;2.73;2.53;;;11.30;1.00;;;;;;4995877;28;20484;-77
2023/04/24 07:33:41;;;;;;;2.53;2.33;;;11.20;1.00;;;;;;5006285;28;20205;-76
2023/04/24 07:36:07;;;;;;;2.93;2.63;;;11.50;1.00;;;;;;4999109;28;20225;-77
2023/04/24 07:38:32;;;;;;;3.63;2.60;;;11.70;1.00;;;;;;5007463;28;20560;-76
2023/04/24 07:40:58;;;;;;;3.57;2.63;;;11.80;1.00;;;;;;5002187;28;20213;-77
2023/04/24 07:43:23;;;;;;;2.63;2.30;;;12.00;1.00;;;;;;5008847;28;20197;-76
2023/04/24 07:45:52;;;;;;;2.60;2.40;;;11.80;1.00;;;;;;5005036;28;21649;-76
2023/04/24 07:48:18;;;;;;;3.03;2.63;;;11.80;1.00;;;;;;4991293;28;20202;-77
2023/04/24 07:50:44;;;;;;;2.53;2.33;;;12.30;1.00;;;;;;5009498;28;20444;-77
2023/04/24 07:53:10;;;;;;;2.80;2.50;;;11.90;1.00;;;;;;5008519;28;20186;-77
2023/04/24 07:55:36;;;;;;;3.10;2.63;;;11.90;1.00;;;;;;5008269;28;20465;-76
2023/04/24 07:58:01;;;;;;;2.73;2.53;;;11.80;1.00;;;;;;4993084;28;20186;-76
2023/04/24 08:00:27;;;;;;;2.70;2.40;;;11.80;1.00;;;;;;4990514;28;20228;-76
2023/04/24 08:02:53;;;;;;;3.60;2.40;;;12.90;1.00;;;;;;4991752;28;20221;-76
2023/04/24 08:05:18;;;;;;;2.70;2.30;;;14.30;1.00;;;;;;5011207;28;20210;-76
2023/04/24 08:07:46;;;;;;;2.77;2.40;;;15.40;1.00;;;;;;4998883;28;20457;-75
2023/04/24 08:10:11;;;;;;;3.30;2.57;;;16.00;1.00;;;;;;5002190;28;20183;-75
2023/04/24 08:12:37;;;;;;;4.53;2.90;;;16.60;1.00;;;;;;4996231;28;20792;-74
2023/04/24 08:15:04;;;;;;;4.63;3.07;;;17.00;1.00;;;;;;5002470;28;20272;-76
2023/04/24 08:17:30;;;;;;;3.57;2.53;;;;;;;;;;5006804;28;20448;-74
2023/04/24 08:20:01;;;;;;;3.30;2.60;;;18.30;1.00;;;;;;4985094;28;20429;-76
2023/04/24 08:22:27;;;;;;;4.00;2.30;;;19.70;1.00;;;;;;4988621;28;20492;-76
2023/04/24 08:24:53;;;;;;;4.63;2.87;;;20.00;1.00;;;;;;4995982;28;20460;-76
2023/04/24 08:27:18;;;;;;;3.70;2.73;;;18.60;1.00;;;;;;5003934;28;20468;-76
2023/04/24 08:29:44;;;;;;;3.47;2.70;;;17.40;1.00;;;;;;5008552;28;20185;-75
2023/04/24 08:32:10;;;;;;;5.00;2.70;;;16.70;1.00;;;;;;5008574;28;20585;-76
2023/04/24 08:34:35;;;;;;;3.47;3.00;;;16.20;1.00;;;;;;4993121;28;20202;-76
2023/04/24 08:37:01;;;;;;;3.80;2.83;;;15.60;1.00;;;;;;4992601;28;20189;-75
2023/04/24 08:39:26;;;;;;;2.80;2.50;;;15.10;1.00;;;;;;5007665;28;20264;-76
2023/04/24 08:41:53;;;;;;;3.13;2.47;;;14.80;1.00;;;;;;4991872;28;20682;-75
2023/04/24 08:44:19;;;;;;;3.23;2.20;;;14.40;1.00;;;;;;5006816;28;20202;-75
2023/04/24 08:46:47;;;;;;;2.17;1.93;;;14.10;1.00;;;;;;5007112;28;20461;-75
2023/04/24 08:49:16;;;;;;;3.40;2.63;;;13.70;1.00;;;;;;5007373;28;20452;-76
2023/04/24 08:51:42;;;;;;;5.80;1.93;;;13.70;1.00;;;;;;5004877;28;20433;-75
2023/04/24 08:54:08;;;;;;;2.90;2.20;;;14.00;1.00;;;;;;4995557;28;20460;-75
2023/04/24 08:56:34;;;;;;;2.37;2.17;;;13.90;1.00;;;;;;4986617;28;20190;-76
2023/04/24 08:58:59;;;;;;;2.10;1.90;;;14.20;1.00;;;;;;5005417;28;20179;-76
2023/04/24 09:01:26;;;;;;;2.10;1.90;;;15.50;1.00;;;;;;5007449;28;20899;-76
2023/04/24 09:03:54;;;;;;;4.60;2.40;;;16.10;1.00;;;;;;5005881;28;20210;-76
2023/04/24 09:06:22;;;;;;;3.23;2.30;;;17.30;1.00;;;;;;4989278;28;20449;-76
2023/04/24 09:08:52;;;;;;;3.60;2.30;;;18.80;1.00;;;;;;5006947;28;20997;-75
2023/04/24 09:11:18;;;;;;;3.10;2.40;;;20.10;1.00;;;;;;5010271;28;20445;-77
2023/04/24 09:13:44;;;;;;;4.47;2.60;;;19.50;1.00;;;;;;4992307;28;20938;-76
2023/04/24 09:16:09;;;;;;;4.00;2.40;;;18.00;1.00;;;;;;5006777;28;20194;-76
2023/04/24 09:18:35;;;;;;;4.03;2.77;;;16.40;1.00;;;;;;4990564;28;20194;-76
2023/04/24 09:21:07;;;;;;;3.00;2.60;;;15.40;1.00;;;;;;5005765;28;20190;-76
2023/04/24 09:23:33;;;;;;;2.53;2.23;;;15.50;1.00;;;;;;5006356;28;20186;-74
2023/04/24 09:26:00;;;;;;;2.80;2.30;;;15.50;1.00;;;;;;4997175;28;20452;-77
2023/04/24 09:28:30;;;;;;;2.97;1.80;;;15.50;1.00;;;;;;5006407;28;20213;-76
2023/04/24 09:31:15;;;;;;;3.50;2.53;;;15.40;1.00;;;;;;5004412;28;20853;-77
2023/04/24 09:33:57;;;;;;;6.30;2.50;;;15.10;1.00;;;;;;4995536;28;21016;-75
2023/04/24 09:36:39;;;;;;;3.30;2.07;;;14.60;1.00;;;;;;5007819;28;20959;-75
2023/04/24 09:39:15;;;;;;;2.10;1.70;;;14.80;1.00;;;;;;4992507;28;20449;-76
2023/04/24 09:41:52;;;;;;;4.93;1.87;;;14.70;1.00;;;;;;4990689;28;20524;-75
2023/04/24 09:44:22;;;;;;;2.33;2.07;;;14.90;1.00;;;;;;5006970;28;21037;-75
2023/04/24 09:46:59;;;;;;;5.30;2.43;;;15.20;1.00;;;;;;5002870;28;20476;-76
2023/04/24 09:49:27;;;;;;;3.63;2.70;;;15.40;1.00;;;;;;4992616;28;20444;-76
2023/04/24 09:52:03;;;;;;;2.70;2.50;;;15.80;1.00;;;;;;4994509;28;20483;-76
2023/04/24 09:54:29;;;;;;;5.03;2.40;;;15.90;1.00;;;;;;4990315;28;20877;-76
2023/04/24 09:56:55;;;;;;;3.13;1.97;;;16.10;1.00;;;;;;5006224;28;20476;-75
2023/04/24 09:59:22;;;;;;;4.67;2.30;;;16.00;1.00;;;;;;5006401;28;20444;-76
2023/04/24 10:01:49;;;;;;;2.67;2.23;;;16.10;1.00;;;;;;5008168;28;20469;-75
2023/04/24 10:04:23;;;;;;;2.50;2.03;;;16.00;1.00;;;;;;5004837;28;20753;-77
2023/04/24 10:06:50;;;;;;;3.60;2.10;;;15.90;1.00;;;;;;5008352;28;20475;-76
2023/04/24 10:09:17;;;;;;;3.43;2.90;;;15.50;1.00;;;;;;5006896;28;21005;-75
2023/04/24 10:11:45;;;;;;;3.50;2.70;;;15.10;1.00;;;;;;5005278;28;20429;-74
2023/04/24 10:14:15;;;;;;;3.23;2.53;;;15.10;1.00;;;;;;4999683;28;20915;-74
2023/04/24 10:16:42;;;;;;;4.40;2.67;;;15.00;1.00;;;;;;5003599;28;20487;-75
2023/04/24 10:19:08;;;;;;;3.73;3.10;;;14.80;1.00;;;;;;4994799;28;20437;-75
2023/04/24 10:21:35;;;;;;;3.53;3.20;;;14.60;1.00;;;;;;5009163;28;20447;-76
2023/04/24 10:24:03;;;;;;;15.73;10.97;;;15.00;1.00;;;;;;4992131;28;20971;-74
2023/04/24 10:26:29;;;;;;;6.97;5.83;;;14.10;1.00;;;;;;4992312;28;20421;-73
2023/04/24 10:28:57;;;;;;;4.47;3.27;;;14.20;1.00;;;;;;5011142;28;20450;-75
2023/04/24 10:31:23;;;;;;;3.43;2.77;;;14.30;1.00;;;;;;5009311;28;20186;-77
2023/04/24 10:33:51;;;;;;;8.10;3.70;;;14.00;1.00;;;;;;5004329;28;20895;-76
2023/04/24 10:36:17;;;;;;;5.50;3.30;;;14.20;1.00;;;;;;4989552;28;20441;-75
2023/04/24 10:38:46;;;;;;;4.97;3.50;;;14.20;1.00;;;;;;5006389;28;20563;-75
2023/04/24 10:41:23;;;;;;;5.10;2.60;;;14.30;1.00;;;;;;5005864;28;20491;-75
2023/04/24 10:44:03;;;;;;;5.10;2.70;;;14.20;1.00;;;;;;5003659;28;20507;-78
2023/04/24 10:46:30;;;;;;;3.27;2.97;;;14.60;1.00;;;;;;4990790;28;20440;-77
2023/04/24 10:48:58;;;;;;;4.67;2.87;;;14.60;1.00;;;;;;4989070;28;20461;-77
2023/04/24 10:51:25;;;;;;;3.40;3.07;;;14.20;1.00;;;;;;5008068;28;20449;-75
2023/04/24 10:53:51;;;;;;;3.80;2.90;;;14.20;1.00;;;;;;5010119;28;20545;-75
2023/04/24 10:56:17;;;;;;;3.40;2.90;;;14.00;1.00;;;;;;4996096;28;20664;-75
2023/04/24 10:58:52;;;;;;;4.10;3.30;;;14.20;1.00;;;;;;4987322;28;20622;-75
2023/04/24 11:01:25;;;;;;;4.67;2.60;;;15.10;1.00;;;;;;5012168;28;20437;-77
2023/04/24 11:03:55;;;;;;;3.27;2.93;;;14.80;1.00;;;;;;4995557;28;20527;-76
2023/04/24 11:06:28;;;;;;;4.43;3.00;;;15.00;1.00;;;;;;5012589;28;20452;-75
2023/04/24 11:09:05;;;;;;;4.30;3.00;;;15.30;1.00;;;;;;5007170;28;20473;-76
2023/04/24 11:11:32;;;;;;;3.97;3.00;;;15.90;1.00;;;;;;4995849;28;20510;-76
2023/04/24 11:13:57;;;;;;;3.50;2.97;;;16.50;1.00;;;;;;4992236;28;21145;-76
2023/04/24 11:16:23;;;;;;;3.60;3.30;;;17.10;1.00;;;;;;4995415;28;20449;-75
2023/04/24 11:18:59;;;;;;;6.10;3.77;;;18.20;1.00;;;;;;5011958;28;20195;-75
2023/04/24 11:21:26;;;;;;;4.40;3.87;;;18.40;1.00;;;;;;5006580;28;20676;-75
2023/04/24 11:23:51;;;;;;;4.63;3.73;;;16.80;1.00;;;;;;4994144;28;20453;-77
2023/04/24 11:26:20;;;;;;;6.60;3.97;;;15.80;1.00;;;;;;5008883;28;20445;-75
2023/04/24 11:28:48;;;;;;;4.33;3.50;;;15.60;1.00;;;;;;5009817;28;20203;-76
2023/04/24 11:31:48;;;;;;;3.67;3.27;;;15.50;1.00;;;;;;5010118;28;20803;-76
2023/04/24 11:34:14;;;;;;;3.60;3.30;;;15.80;1.00;;;;;;4996279;28;20467;-75
2023/04/24 11:36:43;;;;;;;4.03;3.13;;;15.80;1.00;;;;;;5010289;28;20485;-77
2023/04/24 11:39:10;;;;;;;3.40;3.00;;;15.70;1.00;;;;;;4994068;28;20797;-77
2023/04/24 11:41:35;;;;;;;5.57;3.30;;;16.00;1.00;;;;;;4992999;28;20465;-75
2023/04/24 11:44:03;;;;;;;5.10;3.30;;;15.90;1.00;;;;;;5010412;28;20515;-76
2023/04/24 11:46:30;;;;;;;3.97;3.57;;;15.60;1.00;;;;;;4995746;28;20190;-76
2023/04/24 11:48:56;;;;;;;4.30;3.10;;;15.60;1.00;;;;;;4994666;28;20497;-78
2023/04/24 11:51:27;;;;;;;3.80;3.47;;;15.60;1.00;;;;;;5011119;28;20907;-76
2023/04/24 11:53:56;;;;;;;4.20;3.40;;;15.50;1.00;;;;;;4995224;28;20504;-75
2023/04/24 11:56:22;;;;;;;3.90;3.30;;;15.30;1.00;;;;;;5013330;28;20453;-75
2023/04/24 11:58:48;;;;;;;5.13;3.70;;;15.50;1.00;;;;;;4994616;28;20484;-76
2023/04/24 12:01:14;;;;;;;8.70;3.50;;;15.50;1.00;;;;;;4993773;28;20496;-76
2023/04/24 12:03:42;;;;;;;4.47;3.77;;;15.20;1.00;;;;;;4995253;28;20198;-75
2023/04/24 12:06:09;;;;;;;4.20;3.80;;;14.90;1.00;;;;;;4992704;28;20594;-75
2023/04/24 12:08:35;;;;;;;6.13;3.80;;;15.10;1.00;;;;;;4991395;28;20461;-76
2023/04/24 12:11:02;;;;;;;4.40;3.30;;;15.30;1.00;;;;;;5007672;28;21094;-76
2023/04/24 12:13:28;;;;;;;6.70;4.40;;;14.90;1.00;;;;;;5006722;28;20175;-77
2023/04/24 12:15:53;;;;;;;6.13;3.67;;;14.90;1.00;;;;;;5008281;28;21046;-77
2023/04/24 12:18:22;;;;;;;3.53;3.23;;;14.90;1.00;;;;;;5010083;28;20276;-77
2023/04/24 12:20:48;;;;;;;5.97;3.50;;;15.10;1.00;;;;;;5008995;28;20662;-75
2023/04/24 12:23:14;;;;;;;5.50;3.20;;;15.30;1.00;;;;;;4992744;28;20520;-75
2023/04/24 12:25:40;;;;;;;5.30;3.73;;;15.30;1.00;;;;;;5008085;28;20206;-76
2023/04/24 12:28:06;;;;;;;4.03;3.20;;;15.50;1.00;;;;;;4995864;28;20257;-76
2023/04/24 12:30:40;;;;;;;6.60;3.70;;;15.70;1.00;;;;;;5008161;28;20468;-76
2023/04/24 12:33:05;;;;;;;4.70;3.40;;;15.50;1.00;;;;;;4996212;28;20232;-77
2023/04/24 12:35:33;;;;;;;5.70;3.20;;;15.80;1.00;;;;;;5009354;28;20465;-76
2023/04/24 12:38:13;;;;;;;4.17;3.10;;;16.10;1.00;;;;;;4993136;28;20265;-76
2023/04/24 12:40:41;;;;;;;6.50;3.47;;;16.60;1.00;;;;;;5009740;28;20491;-77
2023/04/24 12:43:17;;;;;;;4.13;3.40;;;16.80;1.00;;;;;;5008690;28;20540;-77
2023/04/24 12:45:44;;;;;;;3.63;3.33;;;16.50;1.00;;;;;;4994545;28;20457;-76
2023/04/24 12:48:10;;;;;;;3.70;3.23;;;16.10;1.00;;;;;;5010248;28;20493;-75
2023/04/24 12:50:35;;;;;;;5.00;3.20;;;16.30;1.00;;;;;;4994258;28;21046;-76
2023/04/24 12:53:01;;;;;;;4.47;3.53;;;17.00;1.00;;;;;;4992590;28;20185;-76
2023/04/24 12:55:26;;;;;;;8.10;4.00;;;18.40;1.00;;;;;;5011605;28;20711;-77
2023/04/24 12:57:55;;;;;;;4.40;3.57;;;19.10;1.00;;;;;;5011823;28;20236;-76
2023/04/24 13:00:20;;;;;;;5.40;4.10;;;20.20;1.00;;;;;;4994136;28;20193;-76
2023/04/24 13:02:46;;;;;;;5.00;3.53;;;19.90;1.00;;;;;;5011490;28;20512;-76
2023/04/24 13:05:13;;;;;;;7.37;4.30;;;18.90;1.00;;;;;;4988140;28;20268;-76
2023/04/24 13:07:39;;;;;;;7.37;3.93;;;18.10;1.00;;;;;;4994184;28;20201;-75
2023/04/24 13:10:05;;;;;;;5.07;4.30;;;18.70;1.00;;;;;;5011924;28;20839;-75
2023/04/24 13:12:31;;;;;;;5.10;4.13;;;19.20;1.00;;;;;;5009314;28;20175;-75
2023/04/24 13:14:58;;;;;;;5.93;4.50;;;19.00;1.00;;;;;;4993246;28;20552;-75
2023/04/24 13:17:24;;;;;;;6.47;4.60;;;19.20;1.00;;;;;;5007271;28;20529;-77
2023/04/24 13:19:51;;;;;;;6.23;4.60;;;18.80;1.00;;;;;;4991873;28;20441;-75
2023/04/24 13:22:18;;;;;;;5.20;4.60;;;17.70;1.00;;;;;;5007356;28;20286;-76
2023/04/24 13:24:44;;;;;;;10.00;5.00;;;17.20;1.00;;;;;;5009214;28;20536;-76
2023/04/24 13:27:10;;;;;;;6.73;5.10;;;16.80;1.00;;;;;;4992393;28;20568;-76
2023/04/24 13:29:37;;;;;;;5.97;4.33;;;16.80;1.00;;;;;;5009042;28;20187;-75
2023/04/24 13:32:02;;;;;;;7.00;4.57;;;17.00;1.00;;;;;;4989507;28;20217;-76
2023/04/24 13:34:28;;;;;;;5.03;3.77;;;17.00;1.00;;;;;;5008013;28;20485;-75
2023/04/24 13:36:56;;;;;;;8.30;4.10;;;16.80;1.00;;;;;;4995925;28;20193;-76
2023/04/24 13:39:22;;;;;;;6.60;3.73;;;17.10;1.00;;;;;;5001104;28;20276;-75
2023/04/24 13:41:48;;;;;;;5.47;4.23;;;17.20;1.00;;;;;;5007013;28;20850;-77
2023/04/24 13:44:18;;;;;;;5.70;4.97;;;17.90;1.00;;;;;;5006940;28;20459;-77
2023/04/24 13:46:45;;;;;;;5.50;4.10;;;18.40;1.00;;;;;;5008352;28;20210;-76
2023/04/24 13:49:12;;;;;;;6.73;4.70;;;18.70;1.00;;;;;;5009737;28;20430;-76
2023/04/24 13:51:38;;;;;;;6.77;4.80;;;18.70;1.00;;;;;;5010210;28;20578;-78
2023/04/24 13:54:04;;;;;;;6.93;4.50;;;18.70;1.00;;;;;;4992049;28;20468;-77
2023/04/24 13:56:30;;;;;;;6.20;4.37;;;19.20;1.00;;;;;;4993184;28;20441;-77
2023/04/24 13:58:56;;;;;;;5.73;4.20;;;19.00;1.00;;;;;;4993278;28;20193;-76
2023/04/24 14:01:24;;;;;;;7.03;3.70;;;18.30;1.00;;;;;;5011446;28;20264;-75
2023/04/24 14:03:51;;;;;;;5.27;3.90;;;18.00;1.00;;;;;;4995074;28;20206;-75
2023/04/24 14:06:17;;;;;;;4.63;3.90;;;17.80;1.00;;;;;;4996195;28;20433;-76
2023/04/24 14:08:42;;;;;;;6.00;4.07;;;17.40;1.00;;;;;;5014650;28;20465;-76
2023/04/24 14:11:08;;;;;;;14.13;3.80;;;17.10;1.00;;;;;;4996329;28;20451;-77
2023/04/24 14:13:35;;;;;;;6.50;4.20;;;17.10;1.00;;;;;;5009748;28;20699;-76
2023/04/24 14:16:01;;;;;;;4.90;3.90;;;17.10;1.00;;;;;;5008359;28;20183;-75
2023/04/24 14:18:27;;;;;;;7.23;3.87;;;17.30;1.00;;;;;;4987506;28;20753;-77
2023/04/24 14:20:52;;;;;;;6.23;3.80;;;17.20;1.00;;;;;;4990786;28;20182;-76
2023/04/24 14:23:18;;;;;;;6.23;3.80;;;17.30;1.00;;;;;;4993488;28;20406;-76
2023/04/24 14:25:43;;;;;;;11.43;4.30;;;17.20;1.00;;;;;;5009490;28;20944;-77
2023/04/24 14:28:09;;;;;;;4.87;3.90;;;18.50;1.00;;;;;;5008182;28;20301;-75
2023/04/24 14:30:37;;;;;;;3.57;3.13;;;16.40;1.00;;;;;;5007380;28;20217;-75
2023/04/24 14:33:03;;;;;;;5.23;3.20;;;15.90;1.00;;;;;;5009643;28;20183;-76
2023/04/24 14:35:31;;;;;;;4.33;3.23;;;15.70;1.00;;;;;;5011312;28;20539;-75
2023/04/24 14:37:56;;;;;;;4.53;3.30;;;16.40;1.00;;;;;;5009535;28;20186;-76
2023/04/24 14:40:22;;;;;;;5.53;3.57;;;17.50;1.00;;;;;;5009938;28;20444;-76
2023/04/24 14:42:48;;;;;;;3.93;3.53;;;18.00;1.00;;;;;;5007819;28;20714;-76
2023/04/24 14:45:13;;;;;;;4.20;3.23;;;17.90;1.00;;;;;;4993162;28;20238;-76
2023/04/24 14:47:39;;;;;;;3.97;3.57;;;17.30;1.00;;;;;;5012849;28;20230;-76
2023/04/24 14:50:05;;;;;;;4.37;3.73;;;17.10;1.00;;;;;;4989389;28;20273;-77
2023/04/24 14:52:31;;;;;;;4.87;3.80;;;16.80;1.00;;;;;;4992056;28;20198;-75
2023/04/24 14:54:56;;;;;;;5.27;3.50;;;16.30;1.00;;;;;;5007264;28;20911;-75
2023/04/24 14:57:23;;;;;;;3.40;3.07;;;15.90;1.00;;;;;;4993355;28;20210;-76
2023/04/24 14:59:48;;;;;;;6.67;3.20;;;15.70;1.00;;;;;;4989781;28;20209;-76
2023/04/24 15:02:14;;;;;;;6.90;3.30;;;15.00;1.00;;;;;;5005288;28;21031;-75
2023/04/24 15:04:40;;;;;;;3.83;3.43;;;;;;;;;;5012089;28;20214;-75
2023/04/24 15:07:05;;;;;;;4.07;3.47;;;14.80;1.00;;;;;;5008499;28;20684;-75
2023/04/24 15:09:32;;;;;;;4.87;3.60;;;15.40;1.00;;;;;;4989516;28;20529;-76
2023/04/24 15:11:58;;;;;;;6.57;3.70;;;16.00;1.00;;;;;;5003036;28;20181;-74
2023/04/24 15:14:23;;;;;;;6.27;3.33;;;16.80;1.00;;;;;;5003704;28;20815;-76
2023/04/24 15:16:49;;;;;;;5.70;3.50;;;16.80;1.00;;;;;;5005002;28;20553;-75
2023/04/24 15:19:15;;;;;;;9.30;3.63;;;16.50;1.00;;;;;;5006494;28;20178;-75
2023/04/24 15:21:41;;;;;;;4.70;3.53;;;16.40;1.00;;;;;;4995356;28;20724;-75
2023/04/24 15:24:08;;;;;;;5.17;3.90;;;16.10;1.00;;;;;;4995905;28;20289;-76
2023/04/24 15:26:33;;;;;;;4.90;3.80;;;15.80;1.00;;;;;;4991215;28;20441;-75
2023/04/24 15:28:59;;;;;;;5.90;3.40;;;15.60;1.00;;;;;;4992663;28;20490;-79
2023/04/24 15:31:25;;;;;;;6.00;3.60;;;15.40;1.00;;;;;;4991516;28;20198;-76
2023/04/24 15:33:50;;;;;;;4.93;3.30;;;15.10;1.00;;;;;;5008723;28;20191;-75
2023/04/24 15:36:16;;;;;;;4.07;3.23;;;14.80;1.00;;;;;;5007976;28;20316;-76
2023/04/24 15:38:43;;;;;;;4.70;3.30;;;14.70;1.00;;;;;;5008287;28;20190;-75
2023/04/24 15:41:08;;;;;;;3.30;3.00;;;14.60;1.00;;;;;;5008861;28;20492;-77
2023/04/24 15:43:34;;;;;;;3.67;2.90;;;14.60;1.00;;;;;;5003849;28;20437;-76
2023/04/24 15:46:00;;;;;;;3.90;3.20;;;14.60;1.00;;;;;;4987631;28;20189;-74
2023/04/24 15:48:28;;;;;;;3.80;3.20;;;14.60;1.00;;;;;;4993663;28;20210;-76
2023/04/24 15:50:53;;;;;;;4.70;3.30;;;14.50;1.00;;;;;;5003180;28;20491;-76
2023/04/24 15:53:22;;;;;;;4.47;3.07;;;;;;;;;;4991436;28;20445;-76
2023/04/24 15:55:49;;;;;;;3.83;2.93;;;14.30;1.00;;;;;;5009164;28;20179;-74
2023/04/24 15:58:14;;;;;;;6.00;3.23;;;14.10;1.00;;;;;;5007951;28;20441;-76
2023/04/24 16:00:40;;;;;;;9.47;3.20;;;14.10;1.00;;;;;;4994452;28;20452;-75
2023/04/24 16:03:06;;;;;;;3.67;3.37;;;14.10;1.00;;;;;;5004417;28;20183;-76
2023/04/24 16:05:32;;;;;;;6.30;3.40;;;13.80;1.00;;;;;;5005304;28;20668;-76
2023/04/24 16:07:57;;;;;;;9.33;3.40;;;13.40;1.00;;;;;;4998550;28;20210;-76
2023/04/24 16:10:23;;;;;;;5.43;3.53;;;13.00;1.00;;;;;;5003171;28;20337;-75
2023/04/24 16:12:50;;;;;;;4.90;3.27;;;13.10;1.00;;;;;;5008270;28;20190;-76
2023/04/24 16:15:16;;;;;;;4.80;3.13;;;13.70;1.00;;;;;;5007334;28;20453;-76
2023/04/24 16:17:41;;;;;;;3.87;2.90;;;14.60;1.00;;;;;;5006303;28;20604;-76
2023/04/24 16:20:07;;;;;;;5.27;3.23;;;14.80;1.00;;;;;;5006006;28;20265;-76
2023/04/24 16:22:33;;;;;;;5.37;3.47;;;15.00;1.00;;;;;;5009039;28;20190;-76
2023/04/24 16:24:58;;;;;;;4.07;3.13;;;14.70;1.00;;;;;;5005942;28;20689;-77
2023/04/24 16:27:25;;;;;;;6.93;3.30;;;14.40;1.00;;;;;;5007784;28;20660;-76
2023/04/24 16:29:50;;;;;;;6.97;3.60;;;14.20;1.00;;;;;;4996327;28;20273;-76
2023/04/24 16:32:16;;;;;;;3.07;2.73;;;14.20;1.00;;;;;;5007629;28;20950;-76
2023/04/24 16:34:41;;;;;;;3.20;2.90;;;14.20;1.00;;;;;;4991000;28;20207;-76
2023/04/24 16:37:07;;;;;;;3.47;3.13;;;14.00;1.00;;;;;;4992921;28;20183;-76
2023/04/24 16:39:33;;;;;;;3.70;2.70;;;13.70;1.00;;;;;;4988819;28;20174;-76
2023/04/24 16:42:00;;;;;;;2.83;2.50;;;13.40;1.00;;;;;;4992924;28;20263;-76